Alexania, Brazil
Current Conditions -  °F | °C
As of 10:00 AM on Wednesday 22 Oct 2014 (Local Time) from SBAN Reporting Station
Clear Clear  
Wind Chill: 77°   Ceiling: Unl
Heat Index: 79°   Visibility: 6mi
Dew Point: 59°   Wind: 7mph
Humidity: 54%   Direction: 10°N
Pressure: 30.15"   Gusts: NA
Location:  16.08°S, 48.51°W
Report Text: SBAN 221200Z 01006KT CAVOK 25/15 Q1021
Loading
Personal Weather Stations






























Interactive Weather Map
Tropical Storm Tracking
New forecast layout! Learn more

10-Day Weather Forecast

Advertisements
Track Severe Weather on mobile